sensor_id;sensor_type;location;lat;lon;timestamp;temperature;humidity
53035;DHT22;38923;53.236;6.506;2022-10-31T00:01:00;13.90;99.90
53035;DHT22;38923;53.236;6.506;2022-10-31T00:03:26;13.80;99.90
53035;DHT22;38923;53.236;6.506;2022-10-31T00:05:52;13.80;99.90
53035;DHT22;38923;53.236;6.506;2022-10-31T00:08:18;13.80;99.90
53035;DHT22;38923;53.236;6.506;2022-10-31T00:10:45;13.80;99.90
53035;DHT22;38923;53.236;6.506;2022-10-31T00:13:12;13.80;99.90
53035;DHT22;38923;53.236;6.506;2022-10-31T00:15:40;13.80;99.90
53035;DHT22;38923;53.236;6.506;2022-10-31T00:18:07;12.90;99.90
53035;DHT22;38923;53.236;6.506;2022-10-31T00:20:33;13.70;99.90
53035;DHT22;38923;53.236;6.506;2022-10-31T00:23:00;13.70;99.90
53035;DHT22;38923;53.236;6.506;2022-10-31T00:25:27;13.70;99.90
53035;DHT22;38923;53.236;6.506;2022-10-31T00:27:53;13.70;99.90
53035;DHT22;38923;53.236;6.506;2022-10-31T00:30:19;13.70;99.90
53035;DHT22;38923;53.236;6.506;2022-10-31T00:32:45;13.70;99.90
53035;DHT22;38923;53.236;6.506;2022-10-31T00:35:11;13.70;99.90
53035;DHT22;38923;53.236;6.506;2022-10-31T00:37:36;13.60;99.90
53035;DHT22;38923;53.236;6.506;2022-10-31T00:40:02;13.70;99.90
53035;DHT22;38923;53.236;6.506;2022-10-31T00:42:28;13.70;99.90
53035;DHT22;38923;53.236;6.506;2022-10-31T00:44:53;13.60;99.90
53035;DHT22;38923;53.236;6.506;2022-10-31T00:47:19;13.60;99.90
53035;DHT22;38923;53.236;6.506;2022-10-31T00:49:45;13.60;99.90
53035;DHT22;38923;53.236;6.506;2022-10-31T00:52:11;13.60;99.90
53035;DHT22;38923;53.236;6.506;2022-10-31T00:54:36;13.60;99.90
53035;DHT22;38923;53.236;6.506;2022-10-31T00:57:03;13.50;99.90
53035;DHT22;38923;53.236;6.506;2022-10-31T00:59:28;13.50;99.90
53035;DHT22;38923;53.236;6.506;2022-10-31T01:01:54;13.50;99.90
53035;DHT22;38923;53.236;6.506;2022-10-31T01:04:20;13.50;99.90
53035;DHT22;38923;53.236;6.506;2022-10-31T01:06:45;13.50;99.90
53035;DHT22;38923;53.236;6.506;2022-10-31T01:09:11;13.50;99.90
53035;DHT22;38923;53.236;6.506;2022-10-31T01:11:37;13.80;99.90
53035;DHT22;38923;53.236;6.506;2022-10-31T01:14:03;13.50;99.90
53035;DHT22;38923;53.236;6.506;2022-10-31T01:16:28;13.40;99.90
53035;DHT22;38923;53.236;6.506;2022-10-31T01:18:55;13.40;99.90
53035;DHT22;38923;53.236;6.506;2022-10-31T01:21:25;13.40;99.90
53035;DHT22;38923;53.236;6.506;2022-10-31T01:23:55;13.40;99.90
53035;DHT22;38923;53.236;6.506;2022-10-31T01:26:23;13.40;99.90
53035;DHT22;38923;53.236;6.506;2022-10-31T01:28:55;13.30;99.90
53035;DHT22;38923;53.236;6.506;2022-10-31T01:31:24;13.40;99.90
53035;DHT22;38923;53.236;6.506;2022-10-31T01:33:50;13.30;99.90
53035;DHT22;38923;53.236;6.506;2022-10-31T01:36:22;13.30;99.90
53035;DHT22;38923;53.236;6.506;2022-10-31T01:38:49;13.30;99.90
53035;DHT22;38923;53.236;6.506;2022-10-31T01:41:21;13.30;99.90
53035;DHT22;38923;53.236;6.506;2022-10-31T01:43:59;13.30;99.90
53035;DHT22;38923;53.236;6.506;2022-10-31T01:46:37;13.30;99.90
53035;DHT22;38923;53.236;6.506;2022-10-31T01:49:16;13.30;99.90
53035;DHT22;38923;53.236;6.506;2022-10-31T01:51:57;13.30;99.90
53035;DHT22;38923;53.236;6.506;2022-10-31T01:54:27;13.30;99.90
53035;DHT22;38923;53.236;6.506;2022-10-31T01:56:56;13.30;99.90
53035;DHT22;38923;53.236;6.506;2022-10-31T01:59:24;13.90;99.90
53035;DHT22;38923;53.236;6.506;2022-10-31T02:01:52;13.30;99.90
53035;DHT22;38923;53.236;6.506;2022-10-31T02:04:19;13.20;99.90
53035;DHT22;38923;53.236;6.506;2022-10-31T02:07:03;13.20;99.90
53035;DHT22;38923;53.236;6.506;2022-10-31T02:09:34;13.20;99.90
53035;DHT22;38923;53.236;6.506;2022-10-31T02:12:01;13.20;99.90
53035;DHT22;38923;53.236;6.506;2022-10-31T02:14:29;13.20;99.90
53035;DHT22;38923;53.236;6.506;2022-10-31T02:16:56;13.20;99.90
53035;DHT22;38923;53.236;6.506;2022-10-31T02:19:43;13.20;99.90
53035;DHT22;38923;53.236;6.506;2022-10-31T02:22:26;13.10;99.90
53035;DHT22;38923;53.236;6.506;2022-10-31T02:25:20;13.10;99.90
53035;DHT22;38923;53.236;6.506;2022-10-31T02:30:21;13.10;99.90
53035;DHT22;38923;53.236;6.506;2022-10-31T02:32:56;13.00;99.90
53035;DHT22;38923;53.236;6.506;2022-10-31T02:38:42;13.00;99.90
53035;DHT22;38923;53.236;6.506;2022-10-31T02:43:48;13.00;99.90
53035;DHT22;38923;53.236;6.506;2022-10-31T02:46:57;13.00;99.90
53035;DHT22;38923;53.236;6.506;2022-10-31T02:49:15;12.90;99.90
53035;DHT22;38923;53.236;6.506;2022-10-31T02:51:44;12.90;99.90
53035;DHT22;38923;53.236;6.506;2022-10-31T02:54:23;13.80;99.90
53035;DHT22;38923;53.236;6.506;2022-10-31T02:56:50;12.90;99.90
53035;DHT22;38923;53.236;6.506;2022-10-31T02:59:17;12.90;99.90
53035;DHT22;38923;53.236;6.506;2022-10-31T03:07:28;12.90;99.90
53035;DHT22;38923;53.236;6.506;2022-10-31T03:15:56;12.80;99.90
53035;DHT22;38923;53.236;6.506;2022-10-31T03:18:30;12.80;99.90
53035;DHT22;38923;53.236;6.506;2022-10-31T03:21:05;12.80;99.90
53035;DHT22;38923;53.236;6.506;2022-10-31T03:23:34;12.70;99.90
53035;DHT22;38923;53.236;6.506;2022-10-31T03:26:05;12.70;99.90
53035;DHT22;38923;53.236;6.506;2022-10-31T03:28:48;12.70;99.90
53035;DHT22;38923;53.236;6.506;2022-10-31T03:31:17;12.70;99.90
53035;DHT22;38923;53.236;6.506;2022-10-31T03:33:45;12.70;99.90
53035;DHT22;38923;53.236;6.506;2022-10-31T03:36:14;12.60;99.90
53035;DHT22;38923;53.236;6.506;2022-10-31T03:38:41;12.70;99.90
53035;DHT22;38923;53.236;6.506;2022-10-31T03:41:23;12.60;99.90
53035;DHT22;38923;53.236;6.506;2022-10-31T03:43:58;13.50;99.90
53035;DHT22;38923;53.236;6.506;2022-10-31T03:46:25;12.60;99.90
53035;DHT22;38923;53.236;6.506;2022-10-31T03:48:51;12.50;99.90
53035;DHT22;38923;53.236;6.506;2022-10-31T03:54:20;12.50;99.90
53035;DHT22;38923;53.236;6.506;2022-10-31T03:59:47;12.40;99.90
53035;DHT22;38923;53.236;6.506;2022-10-31T04:02:18;12.40;99.90
53035;DHT22;38923;53.236;6.506;2022-10-31T04:04:45;12.30;99.90
53035;DHT22;38923;53.236;6.506;2022-10-31T04:07:12;12.30;99.90
53035;DHT22;38923;53.236;6.506;2022-10-31T04:09:43;12.20;99.90
53035;DHT22;38923;53.236;6.506;2022-10-31T04:12:12;12.20;99.90
53035;DHT22;38923;53.236;6.506;2022-10-31T04:14:42;12.50;99.90
53035;DHT22;38923;53.236;6.506;2022-10-31T04:17:12;12.20;99.90
53035;DHT22;38923;53.236;6.506;2022-10-31T04:19:39;12.10;99.90
53035;DHT22;38923;53.236;6.506;2022-10-31T04:22:05;12.10;99.90
53035;DHT22;38923;53.236;6.506;2022-10-31T04:24:30;12.10;99.90
53035;DHT22;38923;53.236;6.506;2022-10-31T04:26:56;12.10;99.90
53035;DHT22;38923;53.236;6.506;2022-10-31T04:29:22;12.10;99.90
53035;DHT22;38923;53.236;6.506;2022-10-31T04:31:47;12.10;99.90
53035;DHT22;38923;53.236;6.506;2022-10-31T04:34:13;12.00;99.90
53035;DHT22;38923;53.236;6.506;2022-10-31T04:36:39;12.00;99.90
53035;DHT22;38923;53.236;6.506;2022-10-31T04:39:05;12.00;99.90
53035;DHT22;38923;53.236;6.506;2022-10-31T04:41:30;12.90;99.90
53035;DHT22;38923;53.236;6.506;2022-10-31T04:43:56;12.00;99.90
53035;DHT22;38923;53.236;6.506;2022-10-31T04:46:22;12.00;99.90
53035;DHT22;38923;53.236;6.506;2022-10-31T04:48:47;12.00;99.90
53035;DHT22;38923;53.236;6.506;2022-10-31T04:51:13;11.90;99.90
53035;DHT22;38923;53.236;6.506;2022-10-31T04:53:39;11.90;99.90
53035;DHT22;38923;53.236;6.506;2022-10-31T04:56:05;12.60;99.90
53035;DHT22;38923;53.236;6.506;2022-10-31T04:58:31;11.90;99.90
53035;DHT22;38923;53.236;6.506;2022-10-31T05:00:56;11.90;99.90
53035;DHT22;38923;53.236;6.506;2022-10-31T05:03:22;11.90;99.90
53035;DHT22;38923;53.236;6.506;2022-10-31T05:05:48;11.90;99.90
53035;DHT22;38923;53.236;6.506;2022-10-31T05:08:14;11.90;99.90
53035;DHT22;38923;53.236;6.506;2022-10-31T05:10:40;12.10;99.90
53035;DHT22;38923;53.236;6.506;2022-10-31T05:13:08;11.90;99.90
53035;DHT22;38923;53.236;6.506;2022-10-31T05:15:34;12.20;99.90
53035;DHT22;38923;53.236;6.506;2022-10-31T05:18:00;11.80;99.90
53035;DHT22;38923;53.236;6.506;2022-10-31T05:20:28;12.00;99.90
53035;DHT22;38923;53.236;6.506;2022-10-31T05:22:56;11.80;99.90
53035;DHT22;38923;53.236;6.506;2022-10-31T05:25:24;11.70;99.90
53035;DHT22;38923;53.236;6.506;2022-10-31T05:27:51;11.70;99.90
53035;DHT22;38923;53.236;6.506;2022-10-31T05:30:20;11.90;99.90
53035;DHT22;38923;53.236;6.506;2022-10-31T05:32:48;11.70;99.90
53035;DHT22;38923;53.236;6.506;2022-10-31T05:35:34;12.50;99.90
53035;DHT22;38923;53.236;6.506;2022-10-31T05:38:00;11.60;99.90
53035;DHT22;38923;53.236;6.506;2022-10-31T05:40:27;11.60;99.90
53035;DHT22;38923;53.236;6.506;2022-10-31T05:42:54;11.60;99.90
53035;DHT22;38923;53.236;6.506;2022-10-31T05:45:22;11.60;99.90
53035;DHT22;38923;53.236;6.506;2022-10-31T05:47:56;11.60;99.90
53035;DHT22;38923;53.236;6.506;2022-10-31T05:50:22;11.50;99.90
53035;DHT22;38923;53.236;6.506;2022-10-31T05:53:01;11.50;99.90
53035;DHT22;38923;53.236;6.506;2022-10-31T05:55:28;11.50;99.90
53035;DHT22;38923;53.236;6.506;2022-10-31T05:57:54;11.50;99.90
53035;DHT22;38923;53.236;6.506;2022-10-31T06:00:21;11.20;99.90
53035;DHT22;38923;53.236;6.506;2022-10-31T06:02:48;11.50;99.90
53035;DHT22;38923;53.236;6.506;2022-10-31T06:05:14;12.20;99.90
53035;DHT22;38923;53.236;6.506;2022-10-31T06:07:40;11.50;99.90
53035;DHT22;38923;53.236;6.506;2022-10-31T06:10:06;11.50;99.90
53035;DHT22;38923;53.236;6.506;2022-10-31T06:12:33;11.40;99.90
53035;DHT22;38923;53.236;6.506;2022-10-31T06:15:07;11.40;99.90
53035;DHT22;38923;53.236;6.506;2022-10-31T06:17:34;11.40;99.90
53035;DHT22;38923;53.236;6.506;2022-10-31T06:20:00;11.40;99.90
53035;DHT22;38923;53.236;6.506;2022-10-31T06:22:26;11.40;99.90
53035;DHT22;38923;53.236;6.506;2022-10-31T06:24:52;11.40;99.90
53035;DHT22;38923;53.236;6.506;2022-10-31T06:27:19;11.40;99.90
53035;DHT22;38923;53.236;6.506;2022-10-31T06:29:48;11.40;99.90
53035;DHT22;38923;53.236;6.506;2022-10-31T06:32:14;11.30;99.90
53035;DHT22;38923;53.236;6.506;2022-10-31T06:34:43;11.30;99.90
53035;DHT22;38923;53.236;6.506;2022-10-31T06:37:11;11.30;99.90
53035;DHT22;38923;53.236;6.506;2022-10-31T06:39:38;11.30;99.90
53035;DHT22;38923;53.236;6.506;2022-10-31T06:42:04;11.30;99.90
53035;DHT22;38923;53.236;6.506;2022-10-31T06:44:30;11.30;99.90
53035;DHT22;38923;53.236;6.506;2022-10-31T06:46:57;11.50;99.90
53035;DHT22;38923;53.236;6.506;2022-10-31T06:49:22;11.20;99.90
53035;DHT22;38923;53.236;6.506;2022-10-31T06:51:48;11.20;99.90
53035;DHT22;38923;53.236;6.506;2022-10-31T06:54:15;11.20;99.90
53035;DHT22;38923;53.236;6.506;2022-10-31T06:56:40;11.20;99.90
53035;DHT22;38923;53.236;6.506;2022-10-31T06:59:06;11.30;99.90
53035;DHT22;38923;53.236;6.506;2022-10-31T07:01:32;11.30;99.90
53035;DHT22;38923;53.236;6.506;2022-10-31T07:03:58;11.20;99.90
53035;DHT22;38923;53.236;6.506;2022-10-31T07:06:24;11.20;99.90
53035;DHT22;38923;53.236;6.506;2022-10-31T07:08:50;11.20;99.90
53035;DHT22;38923;53.236;6.506;2022-10-31T07:11:16;11.20;99.90
53035;DHT22;38923;53.236;6.506;2022-10-31T07:13:42;11.20;99.90
53035;DHT22;38923;53.236;6.506;2022-10-31T07:16:08;11.20;99.90
53035;DHT22;38923;53.236;6.506;2022-10-31T07:18:37;11.20;99.90
53035;DHT22;38923;53.236;6.506;2022-10-31T07:21:03;11.20;99.90
53035;DHT22;38923;53.236;6.506;2022-10-31T07:23:29;11.20;99.90
53035;DHT22;38923;53.236;6.506;2022-10-31T07:25:56;10.80;99.90
53035;DHT22;38923;53.236;6.506;2022-10-31T07:28:23;11.20;99.90
53035;DHT22;38923;53.236;6.506;2022-10-31T07:30:56;11.20;99.90
53035;DHT22;38923;53.236;6.506;2022-10-31T07:33:23;11.30;99.90
53035;DHT22;38923;53.236;6.506;2022-10-31T07:35:51;11.20;99.90
53035;DHT22;38923;53.236;6.506;2022-10-31T07:38:17;11.30;99.90
53035;DHT22;38923;53.236;6.506;2022-10-31T07:40:43;11.30;99.90
53035;DHT22;38923;53.236;6.506;2022-10-31T07:43:10;11.30;99.90
53035;DHT22;38923;53.236;6.506;2022-10-31T07:45:37;11.30;99.90
53035;DHT22;38923;53.236;6.506;2022-10-31T07:48:03;11.40;99.90
53035;DHT22;38923;53.236;6.506;2022-10-31T07:50:30;11.40;99.90
53035;DHT22;38923;53.236;6.506;2022-10-31T07:53:06;11.40;99.90
53035;DHT22;38923;53.236;6.506;2022-10-31T07:55:32;11.40;99.90
53035;DHT22;38923;53.236;6.506;2022-10-31T07:58:08;12.10;99.90
53035;DHT22;38923;53.236;6.506;2022-10-31T08:00:36;11.50;99.90
53035;DHT22;38923;53.236;6.506;2022-10-31T08:03:05;11.60;99.90
53035;DHT22;38923;53.236;6.506;2022-10-31T08:05:32;11.60;99.90
53035;DHT22;38923;53.236;6.506;2022-10-31T08:07:58;11.70;99.90
53035;DHT22;38923;53.236;6.506;2022-10-31T08:10:25;11.70;99.90
53035;DHT22;38923;53.236;6.506;2022-10-31T08:12:56;11.80;99.90
53035;DHT22;38923;53.236;6.506;2022-10-31T08:15:22;12.50;99.90
53035;DHT22;38923;53.236;6.506;2022-10-31T08:17:48;11.90;99.90
53035;DHT22;38923;53.236;6.506;2022-10-31T08:20:14;11.90;99.90
53035;DHT22;38923;53.236;6.506;2022-10-31T08:22:40;11.90;99.90
53035;DHT22;38923;53.236;6.506;2022-10-31T08:25:06;12.00;99.90
53035;DHT22;38923;53.236;6.506;2022-10-31T08:27:31;12.00;99.90
53035;DHT22;38923;53.236;6.506;2022-10-31T08:29:57;12.00;99.90
53035;DHT22;38923;53.236;6.506;2022-10-31T08:32:24;12.00;99.90
53035;DHT22;38923;53.236;6.506;2022-10-31T08:34:50;12.00;99.90
53035;DHT22;38923;53.236;6.506;2022-10-31T08:37:15;12.10;99.90
53035;DHT22;38923;53.236;6.506;2022-10-31T08:39:48;12.10;99.90
53035;DHT22;38923;53.236;6.506;2022-10-31T08:42:14;12.10;99.90
53035;DHT22;38923;53.236;6.506;2022-10-31T08:44:39;12.50;99.90
53035;DHT22;38923;53.236;6.506;2022-10-31T08:47:05;12.10;99.90
53035;DHT22;38923;53.236;6.506;2022-10-31T08:49:31;12.10;99.90
53035;DHT22;38923;53.236;6.506;2022-10-31T08:51:57;12.20;99.90
53035;DHT22;38923;53.236;6.506;2022-10-31T08:54:22;12.20;99.90
53035;DHT22;38923;53.236;6.506;2022-10-31T08:56:48;12.20;99.90
53035;DHT22;38923;53.236;6.506;2022-10-31T08:59:18;12.20;99.90
53035;DHT22;38923;53.236;6.506;2022-10-31T09:01:45;12.20;99.90
53035;DHT22;38923;53.236;6.506;2022-10-31T09:04:11;12.30;99.90
53035;DHT22;38923;53.236;6.506;2022-10-31T09:06:36;12.30;99.90
53035;DHT22;38923;53.236;6.506;2022-10-31T09:09:02;12.30;99.90
53035;DHT22;38923;53.236;6.506;2022-10-31T09:11:30;12.30;99.90
53035;DHT22;38923;53.236;6.506;2022-10-31T09:13:56;12.40;99.90
53035;DHT22;38923;53.236;6.506;2022-10-31T09:16:21;12.40;99.90
53035;DHT22;38923;53.236;6.506;2022-10-31T09:18:47;12.40;99.90
53035;DHT22;38923;53.236;6.506;2022-10-31T09:21:13;12.40;99.90
53035;DHT22;38923;53.236;6.506;2022-10-31T09:23:39;12.40;99.90
53035;DHT22;38923;53.236;6.506;2022-10-31T09:26:04;12.50;99.90
53035;DHT22;38923;53.236;6.506;2022-10-31T09:28:30;12.50;99.90
53035;DHT22;38923;53.236;6.506;2022-10-31T09:30:57;12.50;99.90
53035;DHT22;38923;53.236;6.506;2022-10-31T09:33:23;12.50;99.90
53035;DHT22;38923;53.236;6.506;2022-10-31T09:35:49;12.60;99.90
53035;DHT22;38923;53.236;6.506;2022-10-31T09:38:17;12.60;99.90
53035;DHT22;38923;53.236;6.506;2022-10-31T09:51:38;12.70;99.90
53035;DHT22;38923;53.236;6.506;2022-10-31T09:57:02;12.80;99.90
53035;DHT22;38923;53.236;6.506;2022-10-31T09:59:37;12.90;99.90
53035;DHT22;38923;53.236;6.506;2022-10-31T10:05:08;13.00;99.90
53035;DHT22;38923;53.236;6.506;2022-10-31T10:07:40;13.00;99.90
53035;DHT22;38923;53.236;6.506;2022-10-31T10:10:31;13.10;99.90
53035;DHT22;38923;53.236;6.506;2022-10-31T10:13:08;13.10;99.90
53035;DHT22;38923;53.236;6.506;2022-10-31T10:18:44;13.20;99.90
53035;DHT22;38923;53.236;6.506;2022-10-31T10:21:42;13.20;99.90
53035;DHT22;38923;53.236;6.506;2022-10-31T10:27:20;13.30;99.90
53035;DHT22;38923;53.236;6.506;2022-10-31T10:32:29;14.00;99.90
53035;DHT22;38923;53.236;6.506;2022-10-31T10:35:02;13.40;99.90
53035;DHT22;38923;53.236;6.506;2022-10-31T10:37:41;14.40;99.90
53035;DHT22;38923;53.236;6.506;2022-10-31T10:43:01;13.50;99.90
53035;DHT22;38923;53.236;6.506;2022-10-31T10:52:13;13.60;99.90
53035;DHT22;38923;53.236;6.506;2022-10-31T10:57:58;13.70;99.90
53035;DHT22;38923;53.236;6.506;2022-10-31T11:00:40;13.70;99.90
53035;DHT22;38923;53.236;6.506;2022-10-31T11:03:06;13.70;99.90
53035;DHT22;38923;53.236;6.506;2022-10-31T11:05:54;13.60;99.90
53035;DHT22;38923;53.236;6.506;2022-10-31T11:08:29;13.70;99.90
53035;DHT22;38923;53.236;6.506;2022-10-31T11:13:41;13.70;99.90
53035;DHT22;38923;53.236;6.506;2022-10-31T11:16:08;13.70;99.90
53035;DHT22;38923;53.236;6.506;2022-10-31T11:18:44;13.80;99.90
53035;DHT22;38923;53.236;6.506;2022-10-31T11:21:28;13.80;99.90
53035;DHT22;38923;53.236;6.506;2022-10-31T11:24:24;13.90;99.90
53035;DHT22;38923;53.236;6.506;2022-10-31T11:27:25;14.00;99.90
53035;DHT22;38923;53.236;6.506;2022-10-31T11:29:50;13.90;99.90
53035;DHT22;38923;53.236;6.506;2022-10-31T11:32:24;13.90;99.90
53035;DHT22;38923;53.236;6.506;2022-10-31T11:34:53;14.00;99.90
53035;DHT22;38923;53.236;6.506;2022-10-31T11:37:26;14.00;99.90
53035;DHT22;38923;53.236;6.506;2022-10-31T11:39:54;14.00;99.90
53035;DHT22;38923;53.236;6.506;2022-10-31T11:42:22;13.90;99.90
53035;DHT22;38923;53.236;6.506;2022-10-31T11:44:50;14.80;99.90
53035;DHT22;38923;53.236;6.506;2022-10-31T11:47:26;14.00;99.90
53035;DHT22;38923;53.236;6.506;2022-10-31T11:49:53;14.00;99.90
53035;DHT22;38923;53.236;6.506;2022-10-31T11:52:29;14.00;99.90
53035;DHT22;38923;53.236;6.506;2022-10-31T11:55:01;14.00;99.90
53035;DHT22;38923;53.236;6.506;2022-10-31T11:57:42;14.00;99.90
53035;DHT22;38923;53.236;6.506;2022-10-31T12:00:38;14.00;99.90
53035;DHT22;38923;53.236;6.506;2022-10-31T12:03:15;14.10;99.90
53035;DHT22;38923;53.236;6.506;2022-10-31T12:05:45;14.10;99.90
53035;DHT22;38923;53.236;6.506;2022-10-31T12:08:12;13.40;99.90
53035;DHT22;38923;53.236;6.506;2022-10-31T12:10:49;14.20;99.90
53035;DHT22;38923;53.236;6.506;2022-10-31T12:16:13;14.30;99.90
53035;DHT22;38923;53.236;6.506;2022-10-31T12:18:50;14.30;99.90
53035;DHT22;38923;53.236;6.506;2022-10-31T12:26:29;14.00;99.90
53035;DHT22;38923;53.236;6.506;2022-10-31T12:29:07;14.40;99.90
53035;DHT22;38923;53.236;6.506;2022-10-31T12:51:02;14.60;99.90
53035;DHT22;38923;53.236;6.506;2022-10-31T12:58:43;14.60;99.90
53035;DHT22;38923;53.236;6.506;2022-10-31T13:01:31;14.60;99.90
53035;DHT22;38923;53.236;6.506;2022-10-31T13:06:40;14.60;99.90
53035;DHT22;38923;53.236;6.506;2022-10-31T13:09:13;14.60;99.90
53035;DHT22;38923;53.236;6.506;2022-10-31T13:12:02;14.60;99.90
53035;DHT22;38923;53.236;6.506;2022-10-31T13:14:35;14.60;99.90
53035;DHT22;38923;53.236;6.506;2022-10-31T13:17:04;14.60;99.90
53035;DHT22;38923;53.236;6.506;2022-10-31T13:19:41;14.60;99.90
53035;DHT22;38923;53.236;6.506;2022-10-31T13:27:58;14.60;99.90
53035;DHT22;38923;53.236;6.506;2022-10-31T13:30:28;14.60;99.90
53035;DHT22;38923;53.236;6.506;2022-10-31T13:33:14;14.80;99.90
53035;DHT22;38923;53.236;6.506;2022-10-31T13:38:34;14.60;99.90
53035;DHT22;38923;53.236;6.506;2022-10-31T13:46:41;14.60;99.90
53035;DHT22;38923;53.236;6.506;2022-10-31T13:49:38;14.60;99.90
53035;DHT22;38923;53.236;6.506;2022-10-31T13:54:48;14.70;99.90
53035;DHT22;38923;53.236;6.506;2022-10-31T13:57:41;14.70;99.90
53035;DHT22;38923;53.236;6.506;2022-10-31T14:02:51;14.80;99.90
53035;DHT22;38923;53.236;6.506;2022-10-31T14:05:34;14.80;99.90
53035;DHT22;38923;53.236;6.506;2022-10-31T14:08:05;14.80;99.90
53035;DHT22;38923;53.236;6.506;2022-10-31T14:10:47;14.80;99.90
53035;DHT22;38923;53.236;6.506;2022-10-31T14:18:35;14.70;99.90
53035;DHT22;38923;53.236;6.506;2022-10-31T14:21:16;14.70;99.90
53035;DHT22;38923;53.236;6.506;2022-10-31T14:23:52;14.70;99.90
53035;DHT22;38923;53.236;6.506;2022-10-31T14:28:53;14.70;99.90
53035;DHT22;38923;53.236;6.506;2022-10-31T14:33:54;14.60;99.90
53035;DHT22;38923;53.236;6.506;2022-10-31T14:44:25;14.60;99.90
53035;DHT22;38923;53.236;6.506;2022-10-31T14:52:20;14.60;99.90
53035;DHT22;38923;53.236;6.506;2022-10-31T14:54:51;14.60;99.90
53035;DHT22;38923;53.236;6.506;2022-10-31T14:57:27;14.60;99.90
53035;DHT22;38923;53.236;6.506;2022-10-31T14:59:59;14.60;99.90
53035;DHT22;38923;53.236;6.506;2022-10-31T15:02:31;14.60;99.90
53035;DHT22;38923;53.236;6.506;2022-10-31T15:05:00;14.60;99.90
53035;DHT22;38923;53.236;6.506;2022-10-31T15:07:27;14.60;99.90
53035;DHT22;38923;53.236;6.506;2022-10-31T15:10:01;14.60;99.90
53035;DHT22;38923;53.236;6.506;2022-10-31T15:12:29;14.60;99.90
53035;DHT22;38923;53.236;6.506;2022-10-31T15:14:56;14.60;99.90
53035;DHT22;38923;53.236;6.506;2022-10-31T15:17:23;14.60;99.90
53035;DHT22;38923;53.236;6.506;2022-10-31T15:19:50;14.50;99.90
53035;DHT22;38923;53.236;6.506;2022-10-31T15:22:18;14.50;99.90
53035;DHT22;38923;53.236;6.506;2022-10-31T15:24:45;14.50;99.90
53035;DHT22;38923;53.236;6.506;2022-10-31T15:27:13;14.50;99.90
53035;DHT22;38923;53.236;6.506;2022-10-31T15:29:54;14.40;99.90
53035;DHT22;38923;53.236;6.506;2022-10-31T15:32:22;14.50;99.90
53035;DHT22;38923;53.236;6.506;2022-10-31T15:34:50;14.40;99.90
53035;DHT22;38923;53.236;6.506;2022-10-31T15:37:18;14.80;99.90
53035;DHT22;38923;53.236;6.506;2022-10-31T15:39:46;14.40;99.90
53035;DHT22;38923;53.236;6.506;2022-10-31T15:44:53;14.30;99.90
53035;DHT22;38923;53.236;6.506;2022-10-31T15:47:23;14.30;99.90
53035;DHT22;38923;53.236;6.506;2022-10-31T15:49:53;14.30;99.90
53035;DHT22;38923;53.236;6.506;2022-10-31T15:52:28;14.30;99.90
53035;DHT22;38923;53.236;6.506;2022-10-31T15:55:00;14.30;99.90
53035;DHT22;38923;53.236;6.506;2022-10-31T15:57:27;14.30;99.90
53035;DHT22;38923;53.236;6.506;2022-10-31T15:59:53;14.30;99.90
53035;DHT22;38923;53.236;6.506;2022-10-31T16:02:22;14.30;99.90
53035;DHT22;38923;53.236;6.506;2022-10-31T16:04:59;14.30;99.90
53035;DHT22;38923;53.236;6.506;2022-10-31T16:07:29;14.30;99.90
53035;DHT22;38923;53.236;6.506;2022-10-31T16:10:02;14.30;99.90
53035;DHT22;38923;53.236;6.506;2022-10-31T16:12:37;14.30;99.90
53035;DHT22;38923;53.236;6.506;2022-10-31T16:15:04;14.30;99.90
53035;DHT22;38923;53.236;6.506;2022-10-31T16:17:31;14.10;99.90
53035;DHT22;38923;53.236;6.506;2022-10-31T16:20:00;14.30;99.90
53035;DHT22;38923;53.236;6.506;2022-10-31T16:22:37;14.30;99.90
53035;DHT22;38923;53.236;6.506;2022-10-31T16:25:12;14.30;99.90
53035;DHT22;38923;53.236;6.506;2022-10-31T16:27:40;14.20;99.90
53035;DHT22;38923;53.236;6.506;2022-10-31T16:30:42;14.20;99.90
53035;DHT22;38923;53.236;6.506;2022-10-31T16:33:28;14.30;99.90
53035;DHT22;38923;53.236;6.506;2022-10-31T16:35:55;14.80;99.90
53035;DHT22;38923;53.236;6.506;2022-10-31T16:38:21;14.20;99.90
53035;DHT22;38923;53.236;6.506;2022-10-31T16:40:49;15.30;99.90
53035;DHT22;38923;53.236;6.506;2022-10-31T16:43:17;14.20;99.90
53035;DHT22;38923;53.236;6.506;2022-10-31T16:45:48;14.20;99.90
53035;DHT22;38923;53.236;6.506;2022-10-31T16:48:19;14.20;99.90
53035;DHT22;38923;53.236;6.506;2022-10-31T16:50:47;14.20;99.90
53035;DHT22;38923;53.236;6.506;2022-10-31T16:53:13;14.10;99.90
53035;DHT22;38923;53.236;6.506;2022-10-31T16:55:55;14.20;99.90
53035;DHT22;38923;53.236;6.506;2022-10-31T16:58:33;14.20;99.90
53035;DHT22;38923;53.236;6.506;2022-10-31T17:01:00;14.20;99.90
53035;DHT22;38923;53.236;6.506;2022-10-31T17:03:26;14.10;99.90
53035;DHT22;38923;53.236;6.506;2022-10-31T17:05:52;14.10;99.90
53035;DHT22;38923;53.236;6.506;2022-10-31T17:08:21;14.10;99.90
53035;DHT22;38923;53.236;6.506;2022-10-31T17:10:47;14.10;99.90
53035;DHT22;38923;53.236;6.506;2022-10-31T17:13:22;14.20;99.90
53035;DHT22;38923;53.236;6.506;2022-10-31T17:15:52;14.10;99.90
53035;DHT22;38923;53.236;6.506;2022-10-31T17:18:19;14.10;99.90
53035;DHT22;38923;53.236;6.506;2022-10-31T17:20:46;14.10;99.90
53035;DHT22;38923;53.236;6.506;2022-10-31T17:23:13;14.10;99.90
53035;DHT22;38923;53.236;6.506;2022-10-31T17:25:39;14.10;99.90
53035;DHT22;38923;53.236;6.506;2022-10-31T17:28:06;14.10;99.90
53035;DHT22;38923;53.236;6.506;2022-10-31T17:30:32;14.10;99.90
53035;DHT22;38923;53.236;6.506;2022-10-31T17:32:59;14.10;99.90
53035;DHT22;38923;53.236;6.506;2022-10-31T17:35:25;14.10;99.90
53035;DHT22;38923;53.236;6.506;2022-10-31T17:37:51;14.10;99.90
53035;DHT22;38923;53.236;6.506;2022-10-31T17:40:19;14.10;99.90
53035;DHT22;38923;53.236;6.506;2022-10-31T17:42:52;14.00;99.90
53035;DHT22;38923;53.236;6.506;2022-10-31T17:45:18;14.00;99.90
53035;DHT22;38923;53.236;6.506;2022-10-31T17:47:46;14.00;99.90
53035;DHT22;38923;53.236;6.506;2022-10-31T17:50:13;13.90;99.90
53035;DHT22;38923;53.236;6.506;2022-10-31T17:52:39;14.00;99.90
53035;DHT22;38923;53.236;6.506;2022-10-31T17:55:05;13.90;99.90
53035;DHT22;38923;53.236;6.506;2022-10-31T17:57:34;14.00;99.90
53035;DHT22;38923;53.236;6.506;2022-10-31T18:00:02;14.00;99.90
53035;DHT22;38923;53.236;6.506;2022-10-31T18:02:28;14.00;99.90
53035;DHT22;38923;53.236;6.506;2022-10-31T18:04:54;14.00;99.90
53035;DHT22;38923;53.236;6.506;2022-10-31T18:07:19;14.00;99.90
53035;DHT22;38923;53.236;6.506;2022-10-31T18:09:46;12.80;99.90
53035;DHT22;38923;53.236;6.506;2022-10-31T18:12:13;14.00;99.90
53035;DHT22;38923;53.236;6.506;2022-10-31T18:14:40;13.90;99.90